sensor_id;sensor_type;location;lat;lon;timestamp;P1;durP1;ratioP1;P2;durP2;ratioP2
25936;SDS011;13733;51.178;4.450;2023-06-14T00:01:50;11.57;;;6.93;;
25936;SDS011;13733;51.178;4.450;2023-06-14T00:04:16;10.25;;;6.15;;
25936;SDS011;13733;51.178;4.450;2023-06-14T00:06:42;11.38;;;6.22;;
25936;SDS011;13733;51.178;4.450;2023-06-14T00:09:13;10.43;;;6.13;;
25936;SDS011;13733;51.178;4.450;2023-06-14T00:11:40;8.80;;;6.47;;
25936;SDS011;13733;51.178;4.450;2023-06-14T00:14:06;16.02;;;6.78;;
25936;SDS011;13733;51.178;4.450;2023-06-14T00:16:33;9.52;;;6.38;;
25936;SDS011;13733;51.178;4.450;2023-06-14T00:19:00;12.82;;;6.63;;
25936;SDS011;13733;51.178;4.450;2023-06-14T00:21:30;12.57;;;6.72;;
25936;SDS011;13733;51.178;4.450;2023-06-14T00:24:00;9.98;;;6.00;;
25936;SDS011;13733;51.178;4.450;2023-06-14T00:26:26;10.75;;;6.20;;
25936;SDS011;13733;51.178;4.450;2023-06-14T00:28:53;9.48;;;6.40;;
25936;SDS011;13733;51.178;4.450;2023-06-14T00:31:19;10.35;;;6.65;;
25936;SDS011;13733;51.178;4.450;2023-06-14T00:33:46;9.52;;;6.80;;
25936;SDS011;13733;51.178;4.450;2023-06-14T00:36:11;12.65;;;6.78;;
25936;SDS011;13733;51.178;4.450;2023-06-14T00:38:37;12.80;;;6.53;;
25936;SDS011;13733;51.178;4.450;2023-06-14T00:41:03;12.65;;;6.90;;
25936;SDS011;13733;51.178;4.450;2023-06-14T00:43:29;12.45;;;6.30;;
25936;SDS011;13733;51.178;4.450;2023-06-14T00:45:55;18.23;;;6.95;;
25936;SDS011;13733;51.178;4.450;2023-06-14T00:48:21;13.95;;;6.82;;
25936;SDS011;13733;51.178;4.450;2023-06-14T00:50:49;9.63;;;6.70;;
25936;SDS011;13733;51.178;4.450;2023-06-14T00:53:16;12.88;;;6.05;;
25936;SDS011;13733;51.178;4.450;2023-06-14T00:55:50;9.57;;;5.97;;
25936;SDS011;13733;51.178;4.450;2023-06-14T00:58:16;12.85;;;6.28;;
25936;SDS011;13733;51.178;4.450;2023-06-14T01:00:42;12.90;;;7.18;;
25936;SDS011;13733;51.178;4.450;2023-06-14T01:03:09;9.13;;;6.03;;
25936;SDS011;13733;51.178;4.450;2023-06-14T01:05:37;10.55;;;6.65;;
25936;SDS011;13733;51.178;4.450;2023-06-14T01:10:52;10.77;;;6.28;;
25936;SDS011;13733;51.178;4.450;2023-06-14T01:16:00;11.82;;;6.50;;
25936;SDS011;13733;51.178;4.450;2023-06-14T01:18:27;8.77;;;6.40;;
25936;SDS011;13733;51.178;4.450;2023-06-14T01:20:55;9.30;;;6.38;;
25936;SDS011;13733;51.178;4.450;2023-06-14T01:23:23;12.43;;;6.15;;
25936;SDS011;13733;51.178;4.450;2023-06-14T01:25:51;8.95;;;6.18;;
25936;SDS011;13733;51.178;4.450;2023-06-14T01:28:18;7.53;;;6.40;;
25936;SDS011;13733;51.178;4.450;2023-06-14T01:30:46;10.35;;;6.25;;
25936;SDS011;13733;51.178;4.450;2023-06-14T01:33:22;13.30;;;6.72;;
25936;SDS011;13733;51.178;4.450;2023-06-14T01:35:52;7.38;;;6.13;;
25936;SDS011;13733;51.178;4.450;2023-06-14T01:38:19;9.35;;;5.80;;
25936;SDS011;13733;51.178;4.450;2023-06-14T01:40:46;10.50;;;6.03;;
25936;SDS011;13733;51.178;4.450;2023-06-14T01:43:13;7.63;;;6.18;;
25936;SDS011;13733;51.178;4.450;2023-06-14T01:45:41;12.57;;;6.38;;
25936;SDS011;13733;51.178;4.450;2023-06-14T01:48:08;13.20;;;6.22;;
25936;SDS011;13733;51.178;4.450;2023-06-14T01:50:34;11.07;;;5.82;;
25936;SDS011;13733;51.178;4.450;2023-06-14T01:53:00;10.43;;;5.78;;
25936;SDS011;13733;51.178;4.450;2023-06-14T01:55:26;10.88;;;7.32;;
25936;SDS011;13733;51.178;4.450;2023-06-14T01:57:52;11.18;;;5.93;;
25936;SDS011;13733;51.178;4.450;2023-06-14T02:00:19;8.85;;;5.88;;
25936;SDS011;13733;51.178;4.450;2023-06-14T02:02:45;10.25;;;5.68;;
25936;SDS011;13733;51.178;4.450;2023-06-14T02:05:14;9.10;;;6.38;;
25936;SDS011;13733;51.178;4.450;2023-06-14T02:07:44;11.18;;;6.30;;
25936;SDS011;13733;51.178;4.450;2023-06-14T02:10:10;9.98;;;5.82;;
25936;SDS011;13733;51.178;4.450;2023-06-14T02:12:36;11.98;;;5.63;;
25936;SDS011;13733;51.178;4.450;2023-06-14T02:15:02;7.03;;;5.53;;
25936;SDS011;13733;51.178;4.450;2023-06-14T02:17:29;7.93;;;5.53;;
25936;SDS011;13733;51.178;4.450;2023-06-14T02:19:55;11.55;;;6.15;;
25936;SDS011;13733;51.178;4.450;2023-06-14T02:22:22;12.05;;;5.60;;
25936;SDS011;13733;51.178;4.450;2023-06-14T02:24:48;7.80;;;6.07;;
25936;SDS011;13733;51.178;4.450;2023-06-14T02:27:14;11.43;;;5.95;;
25936;SDS011;13733;51.178;4.450;2023-06-14T02:29:39;9.13;;;5.75;;
25936;SDS011;13733;51.178;4.450;2023-06-14T02:32:05;11.48;;;6.05;;
25936;SDS011;13733;51.178;4.450;2023-06-14T02:34:35;11.67;;;5.80;;
25936;SDS011;13733;51.178;4.450;2023-06-14T02:37:01;9.65;;;5.40;;
25936;SDS011;13733;51.178;4.450;2023-06-14T02:39:30;9.15;;;5.95;;
25936;SDS011;13733;51.178;4.450;2023-06-14T02:41:56;8.43;;;5.45;;
25936;SDS011;13733;51.178;4.450;2023-06-14T02:44:25;12.05;;;5.25;;
25936;SDS011;13733;51.178;4.450;2023-06-14T02:46:53;11.75;;;5.57;;
25936;SDS011;13733;51.178;4.450;2023-06-14T02:49:20;9.38;;;5.30;;
25936;SDS011;13733;51.178;4.450;2023-06-14T02:51:47;10.63;;;5.60;;
25936;SDS011;13733;51.178;4.450;2023-06-14T02:54:13;9.23;;;5.55;;
25936;SDS011;13733;51.178;4.450;2023-06-14T02:56:38;9.23;;;5.13;;
25936;SDS011;13733;51.178;4.450;2023-06-14T02:59:05;11.13;;;6.03;;
25936;SDS011;13733;51.178;4.450;2023-06-14T03:01:31;11.70;;;5.47;;
25936;SDS011;13733;51.178;4.450;2023-06-14T03:04:03;11.02;;;5.32;;
25936;SDS011;13733;51.178;4.450;2023-06-14T03:06:31;7.72;;;5.30;;
25936;SDS011;13733;51.178;4.450;2023-06-14T03:08:59;11.02;;;5.70;;
25936;SDS011;13733;51.178;4.450;2023-06-14T03:11:27;9.65;;;4.75;;
25936;SDS011;13733;51.178;4.450;2023-06-14T03:13:53;9.43;;;5.50;;
25936;SDS011;13733;51.178;4.450;2023-06-14T03:16:19;8.38;;;5.82;;
25936;SDS011;13733;51.178;4.450;2023-06-14T03:18:53;11.00;;;5.43;;
25936;SDS011;13733;51.178;4.450;2023-06-14T03:21:19;11.45;;;5.53;;
25936;SDS011;13733;51.178;4.450;2023-06-14T03:23:48;8.52;;;5.90;;
25936;SDS011;13733;51.178;4.450;2023-06-14T03:26:15;7.90;;;5.03;;
25936;SDS011;13733;51.178;4.450;2023-06-14T03:28:44;9.48;;;5.45;;
25936;SDS011;13733;51.178;4.450;2023-06-14T03:31:12;13.25;;;6.25;;
25936;SDS011;13733;51.178;4.450;2023-06-14T03:33:38;12.57;;;5.88;;
25936;SDS011;13733;51.178;4.450;2023-06-14T03:36:05;8.85;;;5.20;;
25936;SDS011;13733;51.178;4.450;2023-06-14T03:38:32;7.00;;;4.95;;
25936;SDS011;13733;51.178;4.450;2023-06-14T03:40:58;11.35;;;5.57;;
25936;SDS011;13733;51.178;4.450;2023-06-14T03:43:24;9.13;;;5.65;;
25936;SDS011;13733;51.178;4.450;2023-06-14T03:45:50;10.82;;;5.43;;
25936;SDS011;13733;51.178;4.450;2023-06-14T03:48:17;8.60;;;5.38;;
25936;SDS011;13733;51.178;4.450;2023-06-14T03:50:43;11.52;;;5.00;;
25936;SDS011;13733;51.178;4.450;2023-06-14T03:53:09;8.48;;;5.10;;
25936;SDS011;13733;51.178;4.450;2023-06-14T03:55:38;8.80;;;5.45;;
25936;SDS011;13733;51.178;4.450;2023-06-14T03:58:04;8.68;;;5.35;;
25936;SDS011;13733;51.178;4.450;2023-06-14T04:00:30;9.32;;;5.57;;
25936;SDS011;13733;51.178;4.450;2023-06-14T04:02:57;8.70;;;5.88;;
25936;SDS011;13733;51.178;4.450;2023-06-14T04:05:24;12.45;;;5.68;;
25936;SDS011;13733;51.178;4.450;2023-06-14T04:07:53;10.30;;;5.70;;
25936;SDS011;13733;51.178;4.450;2023-06-14T04:10:20;13.00;;;5.57;;
25936;SDS011;13733;51.178;4.450;2023-06-14T04:12:47;10.85;;;5.97;;
25936;SDS011;13733;51.178;4.450;2023-06-14T04:15:14;12.20;;;5.53;;
25936;SDS011;13733;51.178;4.450;2023-06-14T04:17:40;9.00;;;5.72;;
25936;SDS011;13733;51.178;4.450;2023-06-14T04:20:06;11.88;;;5.55;;
25936;SDS011;13733;51.178;4.450;2023-06-14T04:22:34;10.32;;;5.70;;
25936;SDS011;13733;51.178;4.450;2023-06-14T04:25:02;13.90;;;5.95;;
25936;SDS011;13733;51.178;4.450;2023-06-14T04:27:29;10.70;;;5.95;;
25936;SDS011;13733;51.178;4.450;2023-06-14T04:29:58;12.07;;;5.93;;
25936;SDS011;13733;51.178;4.450;2023-06-14T04:32:33;19.02;;;6.43;;
25936;SDS011;13733;51.178;4.450;2023-06-14T04:35:00;11.52;;;5.90;;
25936;SDS011;13733;51.178;4.450;2023-06-14T04:37:30;15.93;;;6.40;;
25936;SDS011;13733;51.178;4.450;2023-06-14T04:39:56;15.40;;;5.82;;
25936;SDS011;13733;51.178;4.450;2023-06-14T04:42:23;13.13;;;5.75;;
25936;SDS011;13733;51.178;4.450;2023-06-14T04:44:55;17.48;;;5.65;;
25936;SDS011;13733;51.178;4.450;2023-06-14T04:47:22;17.25;;;6.10;;
25936;SDS011;13733;51.178;4.450;2023-06-14T04:49:50;12.93;;;6.13;;
25936;SDS011;13733;51.178;4.450;2023-06-14T04:52:20;13.15;;;6.10;;
25936;SDS011;13733;51.178;4.450;2023-06-14T04:54:47;13.85;;;5.45;;
25936;SDS011;13733;51.178;4.450;2023-06-14T04:57:17;13.80;;;6.13;;
25936;SDS011;13733;51.178;4.450;2023-06-14T04:59:48;12.00;;;6.18;;
25936;SDS011;13733;51.178;4.450;2023-06-14T05:02:21;11.30;;;5.85;;
25936;SDS011;13733;51.178;4.450;2023-06-14T05:04:48;18.05;;;6.18;;
25936;SDS011;13733;51.178;4.450;2023-06-14T05:07:14;9.82;;;6.00;;
25936;SDS011;13733;51.178;4.450;2023-06-14T05:09:41;10.75;;;6.45;;
25936;SDS011;13733;51.178;4.450;2023-06-14T05:12:07;11.88;;;6.25;;
25936;SDS011;13733;51.178;4.450;2023-06-14T05:14:33;13.80;;;6.40;;
25936;SDS011;13733;51.178;4.450;2023-06-14T05:17:00;15.48;;;6.50;;
25936;SDS011;13733;51.178;4.450;2023-06-14T05:19:26;18.67;;;6.70;;
25936;SDS011;13733;51.178;4.450;2023-06-14T05:21:51;13.43;;;6.05;;
25936;SDS011;13733;51.178;4.450;2023-06-14T05:24:18;9.45;;;6.18;;
25936;SDS011;13733;51.178;4.450;2023-06-14T05:26:45;13.35;;;6.18;;
25936;SDS011;13733;51.178;4.450;2023-06-14T05:29:11;10.95;;;6.05;;
25936;SDS011;13733;51.178;4.450;2023-06-14T05:31:37;10.77;;;6.30;;
25936;SDS011;13733;51.178;4.450;2023-06-14T05:34:03;11.63;;;6.05;;
25936;SDS011;13733;51.178;4.450;2023-06-14T05:36:29;10.02;;;6.03;;
25936;SDS011;13733;51.178;4.450;2023-06-14T05:38:55;13.52;;;6.35;;
25936;SDS011;13733;51.178;4.450;2023-06-14T05:41:26;13.48;;;6.03;;
25936;SDS011;13733;51.178;4.450;2023-06-14T05:43:54;12.80;;;6.72;;
25936;SDS011;13733;51.178;4.450;2023-06-14T05:46:20;18.48;;;6.53;;
25936;SDS011;13733;51.178;4.450;2023-06-14T05:48:53;12.20;;;6.53;;
25936;SDS011;13733;51.178;4.450;2023-06-14T05:51:20;11.80;;;5.90;;
25936;SDS011;13733;51.178;4.450;2023-06-14T05:53:49;14.80;;;6.00;;
25936;SDS011;13733;51.178;4.450;2023-06-14T05:56:15;11.45;;;5.95;;
25936;SDS011;13733;51.178;4.450;2023-06-14T05:58:45;15.68;;;6.30;;
25936;SDS011;13733;51.178;4.450;2023-06-14T06:01:11;14.25;;;6.50;;
25936;SDS011;13733;51.178;4.450;2023-06-14T06:03:38;14.68;;;6.18;;
25936;SDS011;13733;51.178;4.450;2023-06-14T06:06:04;12.77;;;6.93;;
25936;SDS011;13733;51.178;4.450;2023-06-14T06:08:30;10.60;;;6.47;;
25936;SDS011;13733;51.178;4.450;2023-06-14T06:10:56;12.80;;;6.40;;
25936;SDS011;13733;51.178;4.450;2023-06-14T06:13:22;9.25;;;6.60;;
25936;SDS011;13733;51.178;4.450;2023-06-14T06:15:48;11.20;;;6.47;;
25936;SDS011;13733;51.178;4.450;2023-06-14T06:18:14;9.68;;;6.50;;
25936;SDS011;13733;51.178;4.450;2023-06-14T06:20:39;10.70;;;6.15;;
25936;SDS011;13733;51.178;4.450;2023-06-14T06:23:05;16.17;;;6.80;;
25936;SDS011;13733;51.178;4.450;2023-06-14T06:25:32;12.73;;;6.57;;
25936;SDS011;13733;51.178;4.450;2023-06-14T06:27:58;11.82;;;6.40;;
25936;SDS011;13733;51.178;4.450;2023-06-14T06:30:24;16.63;;;6.88;;
25936;SDS011;13733;51.178;4.450;2023-06-14T06:32:51;12.48;;;6.00;;
25936;SDS011;13733;51.178;4.450;2023-06-14T06:35:17;13.02;;;6.75;;
25936;SDS011;13733;51.178;4.450;2023-06-14T06:37:42;13.82;;;6.88;;
25936;SDS011;13733;51.178;4.450;2023-06-14T06:40:08;21.90;;;6.78;;
25936;SDS011;13733;51.178;4.450;2023-06-14T06:42:35;17.45;;;6.28;;
25936;SDS011;13733;51.178;4.450;2023-06-14T06:45:06;7.50;;;5.90;;
25936;SDS011;13733;51.178;4.450;2023-06-14T06:47:32;13.02;;;6.35;;
25936;SDS011;13733;51.178;4.450;2023-06-14T06:49:58;14.25;;;6.85;;
25936;SDS011;13733;51.178;4.450;2023-06-14T06:52:24;15.80;;;5.75;;
25936;SDS011;13733;51.178;4.450;2023-06-14T06:54:50;9.40;;;6.03;;
25936;SDS011;13733;51.178;4.450;2023-06-14T06:57:20;15.32;;;6.22;;
25936;SDS011;13733;51.178;4.450;2023-06-14T06:59:48;12.88;;;6.00;;
25936;SDS011;13733;51.178;4.450;2023-06-14T07:02:14;13.10;;;6.15;;
25936;SDS011;13733;51.178;4.450;2023-06-14T07:04:40;17.20;;;6.40;;
25936;SDS011;13733;51.178;4.450;2023-06-14T07:07:06;15.75;;;5.78;;
25936;SDS011;13733;51.178;4.450;2023-06-14T07:09:34;14.05;;;5.97;;
25936;SDS011;13733;51.178;4.450;2023-06-14T07:12:00;12.15;;;5.85;;
25936;SDS011;13733;51.178;4.450;2023-06-14T07:14:26;9.27;;;5.30;;
25936;SDS011;13733;51.178;4.450;2023-06-14T07:16:52;12.27;;;5.75;;
25936;SDS011;13733;51.178;4.450;2023-06-14T07:19:17;16.65;;;6.30;;
25936;SDS011;13733;51.178;4.450;2023-06-14T07:21:43;9.55;;;6.00;;
25936;SDS011;13733;51.178;4.450;2023-06-14T07:24:09;14.15;;;7.10;;
25936;SDS011;13733;51.178;4.450;2023-06-14T07:26:35;11.10;;;6.38;;
25936;SDS011;13733;51.178;4.450;2023-06-14T07:29:01;10.90;;;5.50;;
25936;SDS011;13733;51.178;4.450;2023-06-14T07:31:27;15.05;;;6.60;;
25936;SDS011;13733;51.178;4.450;2023-06-14T07:33:53;14.23;;;6.45;;
25936;SDS011;13733;51.178;4.450;2023-06-14T07:36:18;12.65;;;6.88;;
25936;SDS011;13733;51.178;4.450;2023-06-14T07:38:45;11.38;;;5.30;;
25936;SDS011;13733;51.178;4.450;2023-06-14T07:41:11;13.38;;;5.85;;
25936;SDS011;13733;51.178;4.450;2023-06-14T07:43:36;16.52;;;6.90;;
25936;SDS011;13733;51.178;4.450;2023-06-14T07:46:02;12.30;;;6.32;;
25936;SDS011;13733;51.178;4.450;2023-06-14T07:48:28;16.65;;;6.30;;
25936;SDS011;13733;51.178;4.450;2023-06-14T07:50:54;12.63;;;6.32;;
25936;SDS011;13733;51.178;4.450;2023-06-14T07:53:20;16.52;;;6.50;;
25936;SDS011;13733;51.178;4.450;2023-06-14T07:55:46;16.42;;;5.82;;
25936;SDS011;13733;51.178;4.450;2023-06-14T07:58:12;12.90;;;5.95;;
25936;SDS011;13733;51.178;4.450;2023-06-14T08:00:38;13.73;;;6.07;;
25936;SDS011;13733;51.178;4.450;2023-06-14T08:03:04;27.20;;;6.88;;
25936;SDS011;13733;51.178;4.450;2023-06-14T08:05:29;15.52;;;6.43;;
25936;SDS011;13733;51.178;4.450;2023-06-14T08:07:55;12.20;;;6.15;;
25936;SDS011;13733;51.178;4.450;2023-06-14T08:10:21;11.93;;;6.45;;
25936;SDS011;13733;51.178;4.450;2023-06-14T08:12:48;16.95;;;6.63;;
25936;SDS011;13733;51.178;4.450;2023-06-14T08:15:15;19.90;;;6.55;;
25936;SDS011;13733;51.178;4.450;2023-06-14T08:17:44;13.57;;;6.30;;
25936;SDS011;13733;51.178;4.450;2023-06-14T08:20:11;17.58;;;6.40;;
25936;SDS011;13733;51.178;4.450;2023-06-14T08:22:37;14.20;;;6.10;;
25936;SDS011;13733;51.178;4.450;2023-06-14T08:25:04;11.93;;;6.55;;
25936;SDS011;13733;51.178;4.450;2023-06-14T08:27:31;10.27;;;6.53;;
25936;SDS011;13733;51.178;4.450;2023-06-14T08:29:57;12.35;;;6.30;;
25936;SDS011;13733;51.178;4.450;2023-06-14T08:32:23;14.30;;;6.70;;
25936;SDS011;13733;51.178;4.450;2023-06-14T08:34:49;12.15;;;6.55;;
25936;SDS011;13733;51.178;4.450;2023-06-14T08:37:15;13.77;;;6.38;;
25936;SDS011;13733;51.178;4.450;2023-06-14T08:39:40;15.98;;;6.78;;
25936;SDS011;13733;51.178;4.450;2023-06-14T08:42:07;11.50;;;6.95;;
25936;SDS011;13733;51.178;4.450;2023-06-14T08:44:34;16.05;;;6.65;;
25936;SDS011;13733;51.178;4.450;2023-06-14T08:47:00;9.02;;;5.90;;
25936;SDS011;13733;51.178;4.450;2023-06-14T08:49:26;14.57;;;5.85;;
25936;SDS011;13733;51.178;4.450;2023-06-14T08:51:53;14.52;;;6.05;;
25936;SDS011;13733;51.178;4.450;2023-06-14T08:54:23;10.65;;;6.30;;
25936;SDS011;13733;51.178;4.450;2023-06-14T08:56:53;16.30;;;6.70;;
25936;SDS011;13733;51.178;4.450;2023-06-14T08:59:31;12.18;;;5.82;;
25936;SDS011;13733;51.178;4.450;2023-06-14T09:02:04;16.08;;;6.35;;
25936;SDS011;13733;51.178;4.450;2023-06-14T09:04:31;25.05;;;6.13;;
25936;SDS011;13733;51.178;4.450;2023-06-14T09:06:58;11.50;;;6.15;;
25936;SDS011;13733;51.178;4.450;2023-06-14T09:09:24;20.02;;;6.03;;
25936;SDS011;13733;51.178;4.450;2023-06-14T09:11:51;10.85;;;5.63;;
25936;SDS011;13733;51.178;4.450;2023-06-14T09:14:19;14.63;;;5.82;;
25936;SDS011;13733;51.178;4.450;2023-06-14T09:16:45;9.88;;;5.47;;
25936;SDS011;13733;51.178;4.450;2023-06-14T09:19:29;15.05;;;5.20;;
25936;SDS011;13733;51.178;4.450;2023-06-14T09:21:55;11.30;;;6.00;;
25936;SDS011;13733;51.178;4.450;2023-06-14T09:24:21;13.07;;;5.63;;
25936;SDS011;13733;51.178;4.450;2023-06-14T09:26:50;22.38;;;5.90;;
25936;SDS011;13733;51.178;4.450;2023-06-14T09:29:16;18.73;;;6.30;;
25936;SDS011;13733;51.178;4.450;2023-06-14T09:31:47;19.73;;;5.78;;
25936;SDS011;13733;51.178;4.450;2023-06-14T09:34:13;12.27;;;5.57;;
25936;SDS011;13733;51.178;4.450;2023-06-14T09:36:39;10.48;;;5.68;;
25936;SDS011;13733;51.178;4.450;2023-06-14T09:39:07;12.75;;;5.95;;
25936;SDS011;13733;51.178;4.450;2023-06-14T09:41:38;11.27;;;5.28;;
25936;SDS011;13733;51.178;4.450;2023-06-14T09:44:06;11.23;;;5.20;;
25936;SDS011;13733;51.178;4.450;2023-06-14T09:46:32;9.32;;;4.90;;
25936;SDS011;13733;51.178;4.450;2023-06-14T09:48:59;10.40;;;4.93;;
25936;SDS011;13733;51.178;4.450;2023-06-14T09:51:27;8.00;;;5.10;;
25936;SDS011;13733;51.178;4.450;2023-06-14T09:53:57;15.27;;;5.32;;
25936;SDS011;13733;51.178;4.450;2023-06-14T09:56:29;11.27;;;5.05;;
25936;SDS011;13733;51.178;4.450;2023-06-14T09:58:58;11.32;;;5.30;;
25936;SDS011;13733;51.178;4.450;2023-06-14T10:01:28;7.70;;;4.85;;
25936;SDS011;13733;51.178;4.450;2023-06-14T10:04:03;10.15;;;4.65;;
25936;SDS011;13733;51.178;4.450;2023-06-14T10:06:31;10.43;;;4.80;;
25936;SDS011;13733;51.178;4.450;2023-06-14T10:08:58;11.02;;;4.55;;
25936;SDS011;13733;51.178;4.450;2023-06-14T10:11:25;11.23;;;4.60;;
25936;SDS011;13733;51.178;4.450;2023-06-14T10:13:52;10.07;;;4.70;;
25936;SDS011;13733;51.178;4.450;2023-06-14T10:16:42;13.35;;;5.25;;
25936;SDS011;13733;51.178;4.450;2023-06-14T10:19:23;12.82;;;4.72;;
25936;SDS011;13733;51.178;4.450;2023-06-14T10:25:01;11.18;;;4.60;;
25936;SDS011;13733;51.178;4.450;2023-06-14T10:27:19;9.13;;;3.92;;
25936;SDS011;13733;51.178;4.450;2023-06-14T10:30:09;8.32;;;4.35;;
25936;SDS011;13733;51.178;4.450;2023-06-14T10:32:35;12.20;;;4.00;;
25936;SDS011;13733;51.178;4.450;2023-06-14T10:35:33;13.52;;;4.30;;
25936;SDS011;13733;51.178;4.450;2023-06-14T10:38:20;10.50;;;4.55;;
25936;SDS011;13733;51.178;4.450;2023-06-14T10:40:55;9.68;;;4.72;;
25936;SDS011;13733;51.178;4.450;2023-06-14T10:43:21;9.68;;;3.55;;
25936;SDS011;13733;51.178;4.450;2023-06-14T10:46:12;9.60;;;4.20;;
25936;SDS011;13733;51.178;4.450;2023-06-14T10:48:42;6.97;;;3.97;;
25936;SDS011;13733;51.178;4.450;2023-06-14T10:51:18;11.65;;;4.05;;
25936;SDS011;13733;51.178;4.450;2023-06-14T10:53:46;7.43;;;4.13;;
25936;SDS011;13733;51.178;4.450;2023-06-14T10:56:23;18.45;;;4.53;;
25936;SDS011;13733;51.178;4.450;2023-06-14T10:58:59;9.10;;;3.90;;
25936;SDS011;13733;51.178;4.450;2023-06-14T11:01:33;10.10;;;3.90;;
25936;SDS011;13733;51.178;4.450;2023-06-14T11:04:07;8.27;;;4.05;;
25936;SDS011;13733;51.178;4.450;2023-06-14T11:07:10;10.00;;;4.28;;
25936;SDS011;13733;51.178;4.450;2023-06-14T11:12:57;11.65;;;3.95;;
25936;SDS011;13733;51.178;4.450;2023-06-14T11:15:28;7.78;;;3.78;;
25936;SDS011;13733;51.178;4.450;2023-06-14T11:18:04;8.63;;;4.18;;
25936;SDS011;13733;51.178;4.450;2023-06-14T11:20:32;11.05;;;4.00;;
25936;SDS011;13733;51.178;4.450;2023-06-14T11:22:58;13.32;;;3.95;;
25936;SDS011;13733;51.178;4.450;2023-06-14T11:25:25;13.18;;;3.88;;
25936;SDS011;13733;51.178;4.450;2023-06-14T11:27:53;11.50;;;4.18;;
25936;SDS011;13733;51.178;4.450;2023-06-14T11:30:19;8.13;;;4.18;;
25936;SDS011;13733;51.178;4.450;2023-06-14T11:32:48;12.75;;;4.03;;
25936;SDS011;13733;51.178;4.450;2023-06-14T11:35:19;7.18;;;3.90;;
25936;SDS011;13733;51.178;4.450;2023-06-14T11:37:48;11.02;;;4.53;;
25936;SDS011;13733;51.178;4.450;2023-06-14T11:40:14;11.02;;;3.83;;
25936;SDS011;13733;51.178;4.450;2023-06-14T11:42:40;13.57;;;4.00;;
25936;SDS011;13733;51.178;4.450;2023-06-14T11:45:07;11.82;;;4.07;;
25936;SDS011;13733;51.178;4.450;2023-06-14T11:47:34;13.45;;;3.95;;
25936;SDS011;13733;51.178;4.450;2023-06-14T11:50:04;7.80;;;3.60;;
25936;SDS011;13733;51.178;4.450;2023-06-14T11:52:32;9.18;;;3.53;;
25936;SDS011;13733;51.178;4.450;2023-06-14T11:54:58;10.05;;;3.38;;
25936;SDS011;13733;51.178;4.450;2023-06-14T11:57:24;11.55;;;3.92;;
25936;SDS011;13733;51.178;4.450;2023-06-14T11:59:50;10.50;;;3.90;;
25936;SDS011;13733;51.178;4.450;2023-06-14T12:02:17;11.88;;;4.22;;
25936;SDS011;13733;51.178;4.450;2023-06-14T12:04:46;21.10;;;4.32;;
25936;SDS011;13733;51.178;4.450;2023-06-14T12:07:16;11.02;;;3.35;;
25936;SDS011;13733;51.178;4.450;2023-06-14T12:12:23;8.23;;;3.72;;
25936;SDS011;13733;51.178;4.450;2023-06-14T12:14:51;9.10;;;3.85;;
25936;SDS011;13733;51.178;4.450;2023-06-14T12:17:17;11.10;;;3.85;;
25936;SDS011;13733;51.178;4.450;2023-06-14T12:19:44;7.78;;;3.50;;
25936;SDS011;13733;51.178;4.450;2023-06-14T12:22:11;9.23;;;3.50;;
25936;SDS011;13733;51.178;4.450;2023-06-14T12:24:39;10.73;;;3.47;;
25936;SDS011;13733;51.178;4.450;2023-06-14T12:27:07;18.40;;;4.07;;
25936;SDS011;13733;51.178;4.450;2023-06-14T12:29:33;14.75;;;3.67;;
25936;SDS011;13733;51.178;4.450;2023-06-14T12:32:00;11.30;;;3.30;;
25936;SDS011;13733;51.178;4.450;2023-06-14T12:34:26;6.47;;;3.33;;
25936;SDS011;13733;51.178;4.450;2023-06-14T12:36:55;6.72;;;3.78;;
25936;SDS011;13733;51.178;4.450;2023-06-14T12:39:21;10.50;;;3.80;;
25936;SDS011;13733;51.178;4.450;2023-06-14T12:41:47;8.48;;;3.53;;
25936;SDS011;13733;51.178;4.450;2023-06-14T12:44:13;13.32;;;3.42;;
25936;SDS011;13733;51.178;4.450;2023-06-14T12:46:43;16.02;;;3.55;;
25936;SDS011;13733;51.178;4.450;2023-06-14T12:49:10;7.68;;;3.30;;
25936;SDS011;13733;51.178;4.450;2023-06-14T12:51:36;8.55;;;2.92;;
25936;SDS011;13733;51.178;4.450;2023-06-14T12:54:03;5.72;;;3.10;;
25936;SDS011;13733;51.178;4.450;2023-06-14T12:56:29;8.57;;;3.22;;
25936;SDS011;13733;51.178;4.450;2023-06-14T12:58:55;6.88;;;2.80;;
25936;SDS011;13733;51.178;4.450;2023-06-14T13:01:21;11.32;;;2.70;;
25936;SDS011;13733;51.178;4.450;2023-06-14T13:03:47;5.55;;;2.65;;
25936;SDS011;13733;51.178;4.450;2023-06-14T13:06:13;7.63;;;2.33;;
25936;SDS011;13733;51.178;4.450;2023-06-14T13:08:39;8.32;;;2.60;;
25936;SDS011;13733;51.178;4.450;2023-06-14T13:11:05;4.75;;;2.72;;
25936;SDS011;13733;51.178;4.450;2023-06-14T13:13:30;10.43;;;2.47;;
25936;SDS011;13733;51.178;4.450;2023-06-14T13:15:56;9.10;;;2.42;;
25936;SDS011;13733;51.178;4.450;2023-06-14T13:18:22;6.82;;;2.70;;
25936;SDS011;13733;51.178;4.450;2023-06-14T13:20:48;7.43;;;2.97;;
25936;SDS011;13733;51.178;4.450;2023-06-14T13:23:14;7.53;;;2.30;;
25936;SDS011;13733;51.178;4.450;2023-06-14T13:25:41;9.23;;;2.65;;
25936;SDS011;13733;51.178;4.450;2023-06-14T13:28:07;9.02;;;2.38;;
25936;SDS011;13733;51.178;4.450;2023-06-14T13:30:32;4.32;;;2.40;;
25936;SDS011;13733;51.178;4.450;2023-06-14T13:33:00;3.47;;;2.20;;
25936;SDS011;13733;51.178;4.450;2023-06-14T13:35:26;6.13;;;2.00;;
25936;SDS011;13733;51.178;4.450;2023-06-14T13:37:52;7.53;;;2.53;;
25936;SDS011;13733;51.178;4.450;2023-06-14T13:40:18;6.50;;;1.95;;
25936;SDS011;13733;51.178;4.450;2023-06-14T13:42:45;7.25;;;1.80;;
25936;SDS011;13733;51.178;4.450;2023-06-14T13:45:12;4.05;;;1.77;;
25936;SDS011;13733;51.178;4.450;2023-06-14T13:47:38;7.68;;;2.28;;
25936;SDS011;13733;51.178;4.450;2023-06-14T13:50:04;2.97;;;2.10;;
25936;SDS011;13733;51.178;4.450;2023-06-14T13:52:30;5.88;;;2.08;;
25936;SDS011;13733;51.178;4.450;2023-06-14T13:54:56;10.10;;;2.88;;
25936;SDS011;13733;51.178;4.450;2023-06-14T13:57:22;10.10;;;2.47;;
25936;SDS011;13733;51.178;4.450;2023-06-14T13:59:48;4.40;;;1.90;;
25936;SDS011;13733;51.178;4.450;2023-06-14T14:02:14;3.13;;;2.33;;
25936;SDS011;13733;51.178;4.450;2023-06-14T14:04:40;6.95;;;1.98;;
25936;SDS011;13733;51.178;4.450;2023-06-14T14:07:06;8.48;;;2.70;;
25936;SDS011;13733;51.178;4.450;2023-06-14T14:09:32;4.22;;;2.20;;
25936;SDS011;13733;51.178;4.450;2023-06-14T14:12:01;5.75;;;2.30;;
25936;SDS011;13733;51.178;4.450;2023-06-14T14:14:28;7.10;;;2.22;;
25936;SDS011;13733;51.178;4.450;2023-06-14T14:16:54;4.18;;;2.10;;
25936;SDS011;13733;51.178;4.450;2023-06-14T14:19:22;5.03;;;2.25;;
25936;SDS011;13733;51.178;4.450;2023-06-14T14:21:48;8.52;;;2.38;;
25936;SDS011;13733;51.178;4.450;2023-06-14T14:24:15;7.55;;;2.00;;
25936;SDS011;13733;51.178;4.450;2023-06-14T14:26:41;9.75;;;2.10;;
25936;SDS011;13733;51.178;4.450;2023-06-14T14:29:07;3.65;;;2.00;;
25936;SDS011;13733;51.178;4.450;2023-06-14T14:31:33;2.13;;;2.00;;
25936;SDS011;13733;51.178;4.450;2023-06-14T14:34:00;7.72;;;2.40;;
25936;SDS011;13733;51.178;4.450;2023-06-14T14:36:25;6.45;;;2.30;;
25936;SDS011;13733;51.178;4.450;2023-06-14T14:38:51;9.40;;;2.50;;
25936;SDS011;13733;51.178;4.450;2023-06-14T14:41:17;5.88;;;2.30;;
25936;SDS011;13733;51.178;4.450;2023-06-14T14:43:43;6.25;;;2.40;;
25936;SDS011;13733;51.178;4.450;2023-06-14T14:46:09;7.15;;;2.58;;
25936;SDS011;13733;51.178;4.450;2023-06-14T14:48:35;4.47;;;2.55;;
25936;SDS011;13733;51.178;4.450;2023-06-14T14:51:00;7.28;;;2.20;;
25936;SDS011;13733;51.178;4.450;2023-06-14T14:53:27;5.55;;;2.40;;
25936;SDS011;13733;51.178;4.450;2023-06-14T14:55:53;8.02;;;2.30;;